sensor_id;sensor_type;location;lat;lon;timestamp;pressure;altitude;pressure_sealevel;temperature;humidity
34925;BME280;21130;51.728;8.748;2023-03-14T00:01:16;97945.00;;;10.58;100.00
34925;BME280;21130;51.728;8.748;2023-03-14T00:03:43;97940.91;;;10.56;100.00
34925;BME280;21130;51.728;8.748;2023-03-14T00:06:10;97946.22;;;10.52;100.00
34925;BME280;21130;51.728;8.748;2023-03-14T00:08:37;97965.03;;;10.55;100.00
34925;BME280;21130;51.728;8.748;2023-03-14T00:11:05;97974.38;;;10.59;100.00
34925;BME280;21130;51.728;8.748;2023-03-14T00:13:31;97975.72;;;10.62;100.00
34925;BME280;21130;51.728;8.748;2023-03-14T00:16:02;97971.69;;;10.68;100.00
34925;BME280;21130;51.728;8.748;2023-03-14T00:18:30;97973.88;;;10.71;100.00
34925;BME280;21130;51.728;8.748;2023-03-14T00:20:57;97977.66;;;10.75;100.00
34925;BME280;21130;51.728;8.748;2023-03-14T00:23:24;97981.28;;;10.76;100.00
34925;BME280;21130;51.728;8.748;2023-03-14T00:25:50;97956.81;;;10.78;100.00
34925;BME280;21130;51.728;8.748;2023-03-14T00:28:17;97975.75;;;10.76;100.00
34925;BME280;21130;51.728;8.748;2023-03-14T00:30:44;97980.78;;;10.74;100.00
34925;BME280;21130;51.728;8.748;2023-03-14T00:33:10;97991.75;;;10.79;100.00
34925;BME280;21130;51.728;8.748;2023-03-14T00:35:38;97987.22;;;10.69;100.00
34925;BME280;21130;51.728;8.748;2023-03-14T00:38:04;97985.91;;;10.67;100.00
34925;BME280;21130;51.728;8.748;2023-03-14T00:40:30;97961.03;;;10.62;100.00
34925;BME280;21130;51.728;8.748;2023-03-14T00:42:57;97944.41;;;10.62;100.00
34925;BME280;21130;51.728;8.748;2023-03-14T00:45:23;97940.59;;;10.57;100.00
34925;BME280;21130;51.728;8.748;2023-03-14T00:47:50;97931.84;;;10.50;100.00
34925;BME280;21130;51.728;8.748;2023-03-14T00:50:16;97913.16;;;10.42;100.00
34925;BME280;21130;51.728;8.748;2023-03-14T00:52:44;97917.56;;;10.43;100.00
34925;BME280;21130;51.728;8.748;2023-03-14T00:55:11;97941.81;;;10.51;100.00
34925;BME280;21130;51.728;8.748;2023-03-14T00:57:38;97958.75;;;10.50;100.00
34925;BME280;21130;51.728;8.748;2023-03-14T01:00:05;97971.56;;;10.46;100.00
34925;BME280;21130;51.728;8.748;2023-03-14T01:02:35;97975.72;;;10.48;100.00
34925;BME280;21130;51.728;8.748;2023-03-14T01:05:02;97998.72;;;10.49;100.00
34925;BME280;21130;51.728;8.748;2023-03-14T01:07:29;97988.66;;;10.53;100.00
34925;BME280;21130;51.728;8.748;2023-03-14T01:09:57;97969.22;;;10.53;100.00
34925;BME280;21130;51.728;8.748;2023-03-14T01:12:23;97962.75;;;10.57;100.00
34925;BME280;21130;51.728;8.748;2023-03-14T01:14:50;97959.19;;;10.57;100.00
34925;BME280;21130;51.728;8.748;2023-03-14T01:17:16;97960.31;;;10.56;100.00
34925;BME280;21130;51.728;8.748;2023-03-14T01:19:42;97962.75;;;10.57;100.00
34925;BME280;21130;51.728;8.748;2023-03-14T01:22:10;97945.00;;;10.58;100.00
34925;BME280;21130;51.728;8.748;2023-03-14T01:24:37;97941.81;;;10.51;100.00
34925;BME280;21130;51.728;8.748;2023-03-14T01:27:05;97917.06;;;10.55;100.00
34925;BME280;21130;51.728;8.748;2023-03-14T01:29:31;97890.75;;;10.52;100.00
34925;BME280;21130;51.728;8.748;2023-03-14T01:31:57;97887.56;;;10.45;100.00
34925;BME280;21130;51.728;8.748;2023-03-14T01:34:24;97899.50;;;10.46;100.00
34925;BME280;21130;51.728;8.748;2023-03-14T01:36:50;97906.47;;;10.43;100.00
34925;BME280;21130;51.728;8.748;2023-03-14T01:39:17;97923.09;;;10.43;100.00
34925;BME280;21130;51.728;8.748;2023-03-14T01:41:43;97931.84;;;10.50;100.00
34925;BME280;21130;51.728;8.748;2023-03-14T01:44:12;97927.97;;;10.51;100.00
34925;BME280;21130;51.728;8.748;2023-03-14T01:46:40;97914.91;;;10.52;100.00
34925;BME280;21130;51.728;8.748;2023-03-14T01:49:10;97914.09;;;10.51;100.00
34925;BME280;21130;51.728;8.748;2023-03-14T01:51:43;97911.22;;;10.56;100.00
34925;BME280;21130;51.728;8.748;2023-03-14T01:54:15;97903.41;;;10.58;100.00
34925;BME280;21130;51.728;8.748;2023-03-14T01:56:45;97898.06;;;10.62;100.00
34925;BME280;21130;51.728;8.748;2023-03-14T01:59:13;97901.34;;;10.64;100.00
34925;BME280;21130;51.728;8.748;2023-03-14T02:01:42;97883.56;;;10.65;100.00
34925;BME280;21130;51.728;8.748;2023-03-14T02:04:10;97884.50;;;10.60;100.00
34925;BME280;21130;51.728;8.748;2023-03-14T02:06:44;97877.50;;;10.63;100.00
34925;BME280;21130;51.728;8.748;2023-03-14T02:09:13;97875.88;;;10.62;100.00
34925;BME280;21130;51.728;8.748;2023-03-14T02:11:40;97871.13;;;10.63;100.00
34925;BME280;21130;51.728;8.748;2023-03-14T02:14:08;97879.69;;;10.66;100.00
34925;BME280;21130;51.728;8.748;2023-03-14T02:16:41;97878.34;;;10.64;100.00
34925;BME280;21130;51.728;8.748;2023-03-14T02:19:08;97866.63;;;10.67;100.00
34925;BME280;21130;51.728;8.748;2023-03-14T02:21:45;97855.53;;;10.67;100.00
34925;BME280;21130;51.728;8.748;2023-03-14T02:24:20;97860.84;;;10.63;100.00
34925;BME280;21130;51.728;8.748;2023-03-14T02:27:08;97867.03;;;10.60;100.00
34925;BME280;21130;51.728;8.748;2023-03-14T02:29:39;97876.91;;;10.66;100.00
34925;BME280;21130;51.728;8.748;2023-03-14T02:32:07;97863.34;;;10.65;100.00
34925;BME280;21130;51.728;8.748;2023-03-14T02:34:34;97863.34;;;10.65;100.00
34925;BME280;21130;51.728;8.748;2023-03-14T02:37:05;97871.84;;;10.68;100.00
34925;BME280;21130;51.728;8.748;2023-03-14T02:39:35;97869.69;;;10.65;100.00
34925;BME280;21130;51.728;8.748;2023-03-14T02:42:02;97886.03;;;10.67;100.00
34925;BME280;21130;51.728;8.748;2023-03-14T02:44:30;97885.53;;;10.65;100.00
34925;BME280;21130;51.728;8.748;2023-03-14T02:46:57;97899.78;;;10.58;100.00
34925;BME280;21130;51.728;8.748;2023-03-14T02:49:24;97905.47;;;10.39;100.00
34925;BME280;21130;51.728;8.748;2023-03-14T02:51:53;97900.88;;;10.15;100.00
34925;BME280;21130;51.728;8.748;2023-03-14T02:54:20;97955.94;;;9.89;100.00
34925;BME280;21130;51.728;8.748;2023-03-14T02:56:46;97984.28;;;8.86;100.00
34925;BME280;21130;51.728;8.748;2023-03-14T02:59:13;97968.56;;;8.05;100.00
34925;BME280;21130;51.728;8.748;2023-03-14T03:01:40;97955.66;;;7.66;100.00
34925;BME280;21130;51.728;8.748;2023-03-14T03:04:07;97967.63;;;7.51;100.00
34925;BME280;21130;51.728;8.748;2023-03-14T03:06:33;97955.84;;;7.40;100.00
34925;BME280;21130;51.728;8.748;2023-03-14T03:09:00;97947.28;;;7.42;100.00
34925;BME280;21130;51.728;8.748;2023-03-14T03:11:26;97948.44;;;7.35;100.00
34925;BME280;21130;51.728;8.748;2023-03-14T03:13:53;97930.28;;;7.24;100.00
34925;BME280;21130;51.728;8.748;2023-03-14T03:16:19;97936.66;;;7.20;100.00
34925;BME280;21130;51.728;8.748;2023-03-14T03:18:47;97909.97;;;7.15;100.00
34925;BME280;21130;51.728;8.748;2023-03-14T03:21:14;97916.88;;;7.12;100.00
34925;BME280;21130;51.728;8.748;2023-03-14T03:23:41;97910.81;;;7.10;100.00
34925;BME280;21130;51.728;8.748;2023-03-14T03:26:09;97916.06;;;7.07;100.00
34925;BME280;21130;51.728;8.748;2023-03-14T03:28:36;97901.38;;;7.17;100.00
34925;BME280;21130;51.728;8.748;2023-03-14T03:31:06;97911.28;;;7.23;100.00
34925;BME280;21130;51.728;8.748;2023-03-14T03:33:33;97919.25;;;7.24;100.00
34925;BME280;21130;51.728;8.748;2023-03-14T03:36:00;97906.28;;;7.30;100.00
34925;BME280;21130;51.728;8.748;2023-03-14T03:38:27;97917.00;;;7.31;100.00
34925;BME280;21130;51.728;8.748;2023-03-14T03:40:53;97902.38;;;7.31;100.00
34925;BME280;21130;51.728;8.748;2023-03-14T03:43:20;97911.44;;;7.36;100.00
34925;BME280;21130;51.728;8.748;2023-03-14T03:45:46;97908.72;;;7.31;100.00
34925;BME280;21130;51.728;8.748;2023-03-14T03:48:12;97900.75;;;7.30;100.00
34925;BME280;21130;51.728;8.748;2023-03-14T03:50:44;97903.19;;;7.31;100.00
34925;BME280;21130;51.728;8.748;2023-03-14T03:53:12;97918.91;;;7.36;100.00
34925;BME280;21130;51.728;8.748;2023-03-14T03:55:40;97905.88;;;7.42;100.00
34925;BME280;21130;51.728;8.748;2023-03-14T03:58:07;97903.94;;;7.42;100.00
34925;BME280;21130;51.728;8.748;2023-03-14T04:00:33;97903.94;;;7.42;100.00
34925;BME280;21130;51.728;8.748;2023-03-14T04:03:00;97912.47;;;7.46;100.00
34925;BME280;21130;51.728;8.748;2023-03-14T04:05:26;97908.91;;;7.45;100.00
34925;BME280;21130;51.728;8.748;2023-03-14T04:07:53;97922.66;;;7.50;100.00
34925;BME280;21130;51.728;8.748;2023-03-14T04:10:20;97915.47;;;7.49;100.00
34925;BME280;21130;51.728;8.748;2023-03-14T04:12:47;97912.16;;;7.52;100.00
34925;BME280;21130;51.728;8.748;2023-03-14T04:15:14;97908.00;;;7.55;100.00
34925;BME280;21130;51.728;8.748;2023-03-14T04:17:41;97904.13;;;7.56;100.00
34925;BME280;21130;51.728;8.748;2023-03-14T04:20:08;97893.31;;;7.60;100.00
34925;BME280;21130;51.728;8.748;2023-03-14T04:22:36;97892.44;;;7.64;100.00
34925;BME280;21130;51.728;8.748;2023-03-14T04:25:03;97887.69;;;7.70;100.00
34925;BME280;21130;51.728;8.748;2023-03-14T04:27:31;97888.75;;;7.74;100.00
34925;BME280;21130;51.728;8.748;2023-03-14T04:29:58;97883.84;;;7.71;100.00
34925;BME280;21130;51.728;8.748;2023-03-14T04:32:24;97879.66;;;7.73;100.00
34925;BME280;21130;51.728;8.748;2023-03-14T04:34:51;97873.88;;;7.75;100.00
34925;BME280;21130;51.728;8.748;2023-03-14T04:37:17;97866.34;;;7.81;100.00
34925;BME280;21130;51.728;8.748;2023-03-14T04:39:43;97865.00;;;7.78;100.00
34925;BME280;21130;51.728;8.748;2023-03-14T04:42:10;97867.22;;;7.76;100.00
34925;BME280;21130;51.728;8.748;2023-03-14T04:44:37;97852.94;;;7.69;100.00
34925;BME280;21130;51.728;8.748;2023-03-14T04:47:04;97857.31;;;7.70;100.00
34925;BME280;21130;51.728;8.748;2023-03-14T04:49:30;97859.03;;;7.66;100.00
34925;BME280;21130;51.728;8.748;2023-03-14T04:51:57;97858.50;;;7.64;100.00
34925;BME280;21130;51.728;8.748;2023-03-14T04:54:23;97846.66;;;7.63;100.00
34925;BME280;21130;51.728;8.748;2023-03-14T04:56:49;97841.88;;;7.69;100.00
34925;BME280;21130;51.728;8.748;2023-03-14T04:59:16;97856.28;;;7.66;100.00
34925;BME280;21130;51.728;8.748;2023-03-14T05:01:44;97849.09;;;7.65;100.00
34925;BME280;21130;51.728;8.748;2023-03-14T05:04:10;97848.59;;;7.63;100.00
34925;BME280;21130;51.728;8.748;2023-03-14T05:06:37;97839.19;;;7.64;100.00
34925;BME280;21130;51.728;8.748;2023-03-14T05:09:04;97840.81;;;7.65;100.00
34925;BME280;21130;51.728;8.748;2023-03-14T05:11:31;97843.25;;;7.71;100.00
34925;BME280;21130;51.728;8.748;2023-03-14T05:13:57;97850.13;;;7.74;100.00
34925;BME280;21130;51.728;8.748;2023-03-14T05:16:24;97856.47;;;7.74;100.00
34925;BME280;21130;51.728;8.748;2023-03-14T05:18:52;97849.03;;;7.75;100.00
34925;BME280;21130;51.728;8.748;2023-03-14T05:21:18;97855.34;;;7.75;100.00
34925;BME280;21130;51.728;8.748;2023-03-14T05:23:45;97846.81;;;7.72;100.00
34925;BME280;21130;51.728;8.748;2023-03-14T05:26:11;97841.88;;;7.69;100.00
34925;BME280;21130;51.728;8.748;2023-03-14T05:28:38;97842.47;;;7.66;100.00
34925;BME280;21130;51.728;8.748;2023-03-14T05:31:06;97850.22;;;7.64;100.00
34925;BME280;21130;51.728;8.748;2023-03-14T05:33:33;97842.22;;;7.62;100.00
34925;BME280;21130;51.728;8.748;2023-03-14T05:36:01;97843.63;;;7.60;100.00
34925;BME280;21130;51.728;8.748;2023-03-14T05:38:27;97838.41;;;7.58;100.00
34925;BME280;21130;51.728;8.748;2023-03-14T05:40:53;97842.63;;;7.50;100.00
34925;BME280;21130;51.728;8.748;2023-03-14T05:43:20;97836.56;;;7.48;100.00
34925;BME280;21130;51.728;8.748;2023-03-14T05:45:46;97838.19;;;7.49;100.00
34925;BME280;21130;51.728;8.748;2023-03-14T05:48:12;97830.19;;;7.53;100.00
34925;BME280;21130;51.728;8.748;2023-03-14T05:50:39;97829.88;;;7.54;100.00
34925;BME280;21130;51.728;8.748;2023-03-14T05:53:07;97838.47;;;7.53;100.00
34925;BME280;21130;51.728;8.748;2023-03-14T05:55:33;97832.94;;;7.53;100.00
34925;BME280;21130;51.728;8.748;2023-03-14T05:57:59;97831.53;;;7.55;100.00
34925;BME280;21130;51.728;8.748;2023-03-14T06:00:26;97825.72;;;7.57;100.00
34925;BME280;21130;51.728;8.748;2023-03-14T06:02:52;97819.91;;;7.58;100.00
34925;BME280;21130;51.728;8.748;2023-03-14T06:05:19;97833.44;;;7.60;100.00
34925;BME280;21130;51.728;8.748;2023-03-14T06:07:45;97830.94;;;7.58;100.00
34925;BME280;21130;51.728;8.748;2023-03-14T06:10:13;97824.84;;;7.62;100.00
34925;BME280;21130;51.728;8.748;2023-03-14T06:12:39;97818.50;;;7.61;100.00
34925;BME280;21130;51.728;8.748;2023-03-14T06:15:07;97811.69;;;7.53;100.00
34925;BME280;21130;51.728;8.748;2023-03-14T06:17:33;97815.56;;;7.52;100.00
34925;BME280;21130;51.728;8.748;2023-03-14T06:20:02;97809.47;;;7.55;100.00
34925;BME280;21130;51.728;8.748;2023-03-14T06:22:28;97813.31;;;7.54;100.00
34925;BME280;21130;51.728;8.748;2023-03-14T06:24:55;97822.13;;;7.56;100.00
34925;BME280;21130;51.728;8.748;2023-03-14T06:27:23;97823.50;;;7.59;100.00
34925;BME280;21130;51.728;8.748;2023-03-14T06:29:49;97824.25;;;7.65;100.00
34925;BME280;21130;51.728;8.748;2023-03-14T06:32:15;97814.63;;;7.62;100.00
34925;BME280;21130;51.728;8.748;2023-03-14T06:34:43;97815.09;;;7.69;100.00
34925;BME280;21130;51.728;8.748;2023-03-14T06:37:11;97820.34;;;7.71;100.00
34925;BME280;21130;51.728;8.748;2023-03-14T06:39:38;97807.56;;;7.80;100.00
34925;BME280;21130;51.728;8.748;2023-03-14T06:42:05;97810.53;;;7.84;100.00
34925;BME280;21130;51.728;8.748;2023-03-14T06:44:33;97808.78;;;7.93;100.00
34925;BME280;21130;51.728;8.748;2023-03-14T06:46:59;97810.88;;;8.01;100.00
34925;BME280;21130;51.728;8.748;2023-03-14T06:49:26;97816.06;;;8.08;100.00
34925;BME280;21130;51.728;8.748;2023-03-14T06:51:52;97806.00;;;8.17;100.00
34925;BME280;21130;51.728;8.748;2023-03-14T06:54:18;97807.28;;;8.25;100.00
34925;BME280;21130;51.728;8.748;2023-03-14T06:56:45;97809.16;;;8.29;100.00
34925;BME280;21130;51.728;8.748;2023-03-14T06:59:11;97808.56;;;8.32;100.00
34925;BME280;21130;51.728;8.748;2023-03-14T07:01:39;97803.53;;;8.39;100.00
34925;BME280;21130;51.728;8.748;2023-03-14T07:04:11;97806.28;;;8.39;100.00
34925;BME280;21130;51.728;8.748;2023-03-14T07:06:37;97807.56;;;8.47;100.00
34925;BME280;21130;51.728;8.748;2023-03-14T07:09:04;97803.91;;;8.52;100.00
34925;BME280;21130;51.728;8.748;2023-03-14T07:11:31;97801.69;;;8.54;100.00
34925;BME280;21130;51.728;8.748;2023-03-14T07:13:57;97799.97;;;8.58;100.00
34925;BME280;21130;51.728;8.748;2023-03-14T07:16:24;97801.81;;;8.62;100.00
34925;BME280;21130;51.728;8.748;2023-03-14T07:18:55;97808.69;;;8.65;100.00
34925;BME280;21130;51.728;8.748;2023-03-14T07:21:21;97817.84;;;8.65;100.00
34925;BME280;21130;51.728;8.748;2023-03-14T07:23:47;97808.41;;;8.67;100.00
34925;BME280;21130;51.728;8.748;2023-03-14T07:26:14;97813.34;;;8.70;100.00
34925;BME280;21130;51.728;8.748;2023-03-14T07:28:41;97819.47;;;8.67;100.00
34925;BME280;21130;51.728;8.748;2023-03-14T07:31:07;97820.59;;;8.65;100.00
34925;BME280;21130;51.728;8.748;2023-03-14T07:33:34;97820.28;;;8.67;100.00
34925;BME280;21130;51.728;8.748;2023-03-14T07:36:02;97811.97;;;8.67;100.00
34925;BME280;21130;51.728;8.748;2023-03-14T07:38:29;97811.97;;;8.67;100.00
34925;BME280;21130;51.728;8.748;2023-03-14T07:40:58;97810.56;;;8.70;100.00
34925;BME280;21130;51.728;8.748;2023-03-14T07:43:25;97807.50;;;8.71;100.00
34925;BME280;21130;51.728;8.748;2023-03-14T07:45:52;97805.84;;;8.70;100.00
34925;BME280;21130;51.728;8.748;2023-03-14T07:48:18;97810.19;;;8.76;100.00
34925;BME280;21130;51.728;8.748;2023-03-14T07:50:48;97796.28;;;8.81;100.00
34925;BME280;21130;51.728;8.748;2023-03-14T07:53:15;97802.66;;;8.82;100.00
34925;BME280;21130;51.728;8.748;2023-03-14T07:55:42;97807.81;;;8.89;100.00
34925;BME280;21130;51.728;8.748;2023-03-14T07:58:08;97812.38;;;8.98;100.00
34925;BME280;21130;51.728;8.748;2023-03-14T08:00:35;97806.97;;;9.07;100.00
34925;BME280;21130;51.728;8.748;2023-03-14T08:03:01;97816.50;;;9.15;100.00
34925;BME280;21130;51.728;8.748;2023-03-14T08:05:28;97821.75;;;9.16;100.00
34925;BME280;21130;51.728;8.748;2023-03-14T08:07:54;97819.00;;;9.16;100.00
34925;BME280;21130;51.728;8.748;2023-03-14T08:10:22;97816.13;;;9.21;100.00
34925;BME280;21130;51.728;8.748;2023-03-14T08:12:49;97813.91;;;9.23;100.00
34925;BME280;21130;51.728;8.748;2023-03-14T08:15:15;97815.75;;;9.28;100.00
34925;BME280;21130;51.728;8.748;2023-03-14T08:17:42;97810.72;;;9.30;100.00
34925;BME280;21130;51.728;8.748;2023-03-14T08:20:10;97822.31;;;9.32;100.00
34925;BME280;21130;51.728;8.748;2023-03-14T08:22:38;97817.41;;;9.29;100.00
34925;BME280;21130;51.728;8.748;2023-03-14T08:25:05;97811.78;;;9.34;100.00
34925;BME280;21130;51.728;8.748;2023-03-14T08:27:33;97808.38;;;9.37;100.00
34925;BME280;21130;51.728;8.748;2023-03-14T08:30:00;97809.63;;;9.45;100.00
34925;BME280;21130;51.728;8.748;2023-03-14T08:32:26;97808.13;;;9.52;100.00
34925;BME280;21130;51.728;8.748;2023-03-14T08:34:53;97808.88;;;9.58;100.00
34925;BME280;21130;51.728;8.748;2023-03-14T08:37:19;97812.38;;;9.64;100.00
34925;BME280;21130;51.728;8.748;2023-03-14T08:39:46;97812.56;;;9.67;100.00
34925;BME280;21130;51.728;8.748;2023-03-14T08:42:12;97821.81;;;9.77;100.00
34925;BME280;21130;51.728;8.748;2023-03-14T08:44:43;97824.44;;;9.68;100.00
34925;BME280;21130;51.728;8.748;2023-03-14T08:47:09;97827.34;;;9.77;100.00
34925;BME280;21130;51.728;8.748;2023-03-14T08:49:36;97826.75;;;9.80;100.00
34925;BME280;21130;51.728;8.748;2023-03-14T08:52:03;97825.72;;;9.76;100.00
34925;BME280;21130;51.728;8.748;2023-03-14T08:54:29;97818.53;;;9.74;100.00
34925;BME280;21130;51.728;8.748;2023-03-14T08:56:56;97826.22;;;9.78;100.00
34925;BME280;21130;51.728;8.748;2023-03-14T08:59:23;97832.81;;;9.82;100.00
34925;BME280;21130;51.728;8.748;2023-03-14T09:01:51;97823.69;;;9.95;100.00
34925;BME280;21130;51.728;8.748;2023-03-14T09:04:17;97834.75;;;9.95;100.00
34925;BME280;21130;51.728;8.748;2023-03-14T09:06:44;97832.72;;;10.01;100.00
34925;BME280;21130;51.728;8.748;2023-03-14T09:09:10;97813.25;;;10.06;100.00
34925;BME280;21130;51.728;8.748;2023-03-14T09:11:38;97820.19;;;10.17;100.00
34925;BME280;21130;51.728;8.748;2023-03-14T09:14:05;97821.84;;;10.18;100.00
34925;BME280;21130;51.728;8.748;2023-03-14T09:16:33;97827.91;;;10.06;100.00
34925;BME280;21130;51.728;8.748;2023-03-14T09:19:03;97827.28;;;10.09;100.00
34925;BME280;21130;51.728;8.748;2023-03-14T09:21:29;97822.25;;;10.11;100.00
34925;BME280;21130;51.728;8.748;2023-03-14T09:23:56;97834.97;;;10.12;100.00
34925;BME280;21130;51.728;8.748;2023-03-14T09:26:22;97819.38;;;10.16;100.00
34925;BME280;21130;51.728;8.748;2023-03-14T09:28:49;97822.69;;;10.19;100.00
34925;BME280;21130;51.728;8.748;2023-03-14T09:31:15;97822.69;;;10.32;100.00
34925;BME280;21130;51.728;8.748;2023-03-14T09:33:42;97825.47;;;10.46;100.00
34925;BME280;21130;51.728;8.748;2023-03-14T09:36:11;97827.19;;;10.42;100.00
34925;BME280;21130;51.728;8.748;2023-03-14T09:38:37;97825.97;;;10.48;100.00
34925;BME280;21130;51.728;8.748;2023-03-14T09:41:12;97828.03;;;10.43;100.00
34925;BME280;21130;51.728;8.748;2023-03-14T09:43:42;97820.22;;;10.45;100.00
34925;BME280;21130;51.728;8.748;2023-03-14T09:46:10;97823.28;;;10.43;100.00
34925;BME280;21130;51.728;8.748;2023-03-14T09:48:37;97825.03;;;10.53;100.00
34925;BME280;21130;51.728;8.748;2023-03-14T09:51:06;97823.09;;;10.53;100.00
34925;BME280;21130;51.728;8.748;2023-03-14T09:53:38;97832.41;;;10.57;100.00
34925;BME280;21130;51.728;8.748;2023-03-14T09:56:11;97826.56;;;10.59;100.00
34925;BME280;21130;51.728;8.748;2023-03-14T09:58:41;97832.53;;;10.52;100.00
34925;BME280;21130;51.728;8.748;2023-03-14T10:01:11;97836.63;;;10.55;100.00
34925;BME280;21130;51.728;8.748;2023-03-14T10:03:40;97834.19;;;10.53;100.00
34925;BME280;21130;51.728;8.748;2023-03-14T10:06:11;97837.66;;;10.59;100.00
34925;BME280;21130;51.728;8.748;2023-03-14T10:08:40;97834.19;;;10.53;100.00
34925;BME280;21130;51.728;8.748;2023-03-14T10:11:12;97839.91;;;10.57;100.00
34925;BME280;21130;51.728;8.748;2023-03-14T10:13:48;97835.13;;;10.49;100.00
34925;BME280;21130;51.728;8.748;2023-03-14T10:16:14;97839.09;;;10.56;100.00
34925;BME280;21130;51.728;8.748;2023-03-14T10:18:44;97839.22;;;10.51;100.00
34925;BME280;21130;51.728;8.748;2023-03-14T10:21:17;97845.91;;;10.36;100.00
34925;BME280;21130;51.728;8.748;2023-03-14T10:23:48;97845.69;;;10.33;100.00
34925;BME280;21130;51.728;8.748;2023-03-14T10:26:16;97858.59;;;10.24;100.00
34925;BME280;21130;51.728;8.748;2023-03-14T10:28:44;97854.41;;;10.26;100.00
34925;BME280;21130;51.728;8.748;2023-03-14T10:31:11;97857.63;;;10.33;100.00
34925;BME280;21130;51.728;8.748;2023-03-14T10:33:38;97854.41;;;10.40;100.00
34925;BME280;21130;51.728;8.748;2023-03-14T10:36:14;97859.97;;;10.40;100.00
34925;BME280;21130;51.728;8.748;2023-03-14T10:38:41;97856.66;;;10.38;100.00
34925;BME280;21130;51.728;8.748;2023-03-14T10:41:16;97857.97;;;10.27;100.00
34925;BME280;21130;51.728;8.748;2023-03-14T10:43:44;97869.44;;;9.92;100.00
34925;BME280;21130;51.728;8.748;2023-03-14T10:46:14;97886.31;;;9.63;100.00
34925;BME280;21130;51.728;8.748;2023-03-14T10:48:42;97893.91;;;9.39;100.00
34925;BME280;21130;51.728;8.748;2023-03-14T10:51:18;97894.72;;;9.20;100.00
34925;BME280;21130;51.728;8.748;2023-03-14T10:53:47;97906.56;;;9.07;100.00
34925;BME280;21130;51.728;8.748;2023-03-14T10:56:17;97918.44;;;8.89;100.00
34925;BME280;21130;51.728;8.748;2023-03-14T10:58:45;97923.13;;;8.69;100.00
34925;BME280;21130;51.728;8.748;2023-03-14T11:01:22;97947.53;;;8.38;100.00
34925;BME280;21130;51.728;8.748;2023-03-14T11:03:54;97932.66;;;8.05;100.00
34925;BME280;21130;51.728;8.748;2023-03-14T11:06:28;97936.44;;;7.85;100.00
34925;BME280;21130;51.728;8.748;2023-03-14T11:09:02;97941.75;;;7.76;100.00
34925;BME280;21130;51.728;8.748;2023-03-14T11:11:33;97961.13;;;7.71;100.00
34925;BME280;21130;51.728;8.748;2023-03-14T11:14:08;97988.47;;;7.67;100.00
34925;BME280;21130;51.728;8.748;2023-03-14T11:16:49;98020.06;;;7.51;100.00
34925;BME280;21130;51.728;8.748;2023-03-14T11:19:42;98031.28;;;7.20;100.00
34925;BME280;21130;51.728;8.748;2023-03-14T11:22:16;98050.94;;;7.03;100.00
34925;BME280;21130;51.728;8.748;2023-03-14T11:25:05;98071.97;;;6.79;100.00
34925;BME280;21130;51.728;8.748;2023-03-14T11:27:41;98081.94;;;6.75;100.00
34925;BME280;21130;51.728;8.748;2023-03-14T11:30:18;98100.97;;;6.61;100.00
34925;BME280;21130;51.728;8.748;2023-03-14T11:32:50;98110.88;;;6.46;100.00
34925;BME280;21130;51.728;8.748;2023-03-14T11:35:24;98124.41;;;6.53;100.00
34925;BME280;21130;51.728;8.748;2023-03-14T11:37:54;98118.34;;;6.41;100.00
34925;BME280;21130;51.728;8.748;2023-03-14T11:40:23;98137.63;;;6.31;100.00
34925;BME280;21130;51.728;8.748;2023-03-14T11:42:59;98141.75;;;6.33;100.00
34925;BME280;21130;51.728;8.748;2023-03-14T11:45:31;98148.66;;;6.31;100.00
34925;BME280;21130;51.728;8.748;2023-03-14T11:48:10;98166.28;;;6.24;100.00
34925;BME280;21130;51.728;8.748;2023-03-14T11:50:42;98195.44;;;6.00;100.00
34925;BME280;21130;51.728;8.748;2023-03-14T11:53:13;98194.22;;;5.75;100.00
34925;BME280;21130;51.728;8.748;2023-03-14T11:55:42;98207.38;;;5.63;100.00
34925;BME280;21130;51.728;8.748;2023-03-14T11:58:14;98232.38;;;5.56;100.00
34925;BME280;21130;51.728;8.748;2023-03-14T12:00:41;98246.06;;;5.41;100.00
34925;BME280;21130;51.728;8.748;2023-03-14T12:03:11;98258.66;;;5.27;100.00
34925;BME280;21130;51.728;8.748;2023-03-14T12:05:46;98259.97;;;5.19;100.00
34925;BME280;21130;51.728;8.748;2023-03-14T12:08:42;98281.31;;;5.02;100.00
34925;BME280;21130;51.728;8.748;2023-03-14T12:11:13;98317.84;;;4.70;100.00
34925;BME280;21130;51.728;8.748;2023-03-14T12:13:47;98336.22;;;4.64;100.00
34925;BME280;21130;51.728;8.748;2023-03-14T12:16:31;98363.22;;;4.23;100.00
34925;BME280;21130;51.728;8.748;2023-03-14T12:19:14;98384.75;;;4.09;100.00
34925;BME280;21130;51.728;8.748;2023-03-14T12:21:47;98389.47;;;3.92;100.00
34925;BME280;21130;51.728;8.748;2023-03-14T12:24:18;98402.91;;;3.72;100.00
34925;BME280;21130;51.728;8.748;2023-03-14T12:26:53;98425.75;;;3.60;100.00
34925;BME280;21130;51.728;8.748;2023-03-14T12:29:21;98422.25;;;3.48;100.00
34925;BME280;21130;51.728;8.748;2023-03-14T12:31:49;98435.75;;;3.50;100.00
34925;BME280;21130;51.728;8.748;2023-03-14T12:34:27;98431.06;;;3.50;100.00
34925;BME280;21130;51.728;8.748;2023-03-14T12:37:00;98451.44;;;3.37;100.00
34925;BME280;21130;51.728;8.748;2023-03-14T12:39:34;98466.41;;;3.46;100.00
34925;BME280;21130;51.728;8.748;2023-03-14T12:42:04;98482.59;;;3.48;100.00
34925;BME280;21130;51.728;8.748;2023-03-14T12:44:41;98486.84;;;3.56;100.00
34925;BME280;21130;51.728;8.748;2023-03-14T12:47:51;98503.66;;;3.59;100.00
34925;BME280;21130;51.728;8.748;2023-03-14T12:50:24;98508.94;;;3.66;100.00
34925;BME280;21130;51.728;8.748;2023-03-14T12:53:27;98513.53;;;3.60;100.00
34925;BME280;21130;51.728;8.748;2023-03-14T12:56:03;98514.69;;;3.64;100.00
34925;BME280;21130;51.728;8.748;2023-03-14T12:58:33;98520.28;;;3.70;100.00
34925;BME280;21130;51.728;8.748;2023-03-14T13:01:04;98543.22;;;3.80;100.00
34925;BME280;21130;51.728;8.748;2023-03-14T13:03:42;98562.78;;;3.84;100.00
34925;BME280;21130;51.728;8.748;2023-03-14T13:06:10;98548.63;;;3.92;100.00